History for IWARWICK28

Hinson's Island, Warwick, WARWICK — Current Conditions
Daily Summary for September 21, 2018
  Current: High: Low: Average:
Temperature: 83.2°F 85.5°F 78.3°F 81.9°F
Dew Point: 67.9°F 71.1°F 47.7°F 59.3°F
Humidity: 60% 64% 33% 48%
Wind Speed: 13.0mph 22.0mph - 15.7mph
Wind Gust: 13.0mph 27.0mph - -
Wind: NE - - NNE
Pressure: 29.85in 29.86in 29.75in -
Precipitation: 0.04in      
Solar Radiation: 209 watts/m^2      
UV Index: 2.2      
Statistics for the rest of the month
    High: Low: Average:
Temperature:   90.9°F 71.9°F 82.8°F
Dew Point:   76.7°F 38.3°F 65.6°F
Humidity:   68.0% 25.0% 58.3%
Wind Speed:   35.0mph from the SSW - 5.3mph
Wind Gust:   38.0mph from the SSW - -
Wind:   - - ENE
Pressure:   30.18in 29.74in -
Precipitation:   2.41in    
IWARWICK28 Weather Graph
Tabular Data for September 21, 2018
Time Temp. Heat Index Dew Point Pressure Wind Gust Humidity Rainfall Solar Radiation
00:00 79.5°F - 55°F 29.79in 15mph 43% 0in 0.00 watts/m^2
00:05 79°F - 51.9°F 29.79in 15mph 39% 0in 0.00 watts/m^2
00:10 79.2°F - 50.7°F 29.78in 12mph 37% 0in 0.00 watts/m^2
00:15 79.2°F - 49.9°F 29.78in 12mph 36% 0in 0.00 watts/m^2
00:20 79.4°F - 50.9°F 29.78in 14mph 37% 0in 0.00 watts/m^2
00:25 79.4°F - 52.3°F 29.79in 14mph 39% 0in 0.00 watts/m^2
00:30 79.4°F - 53°F 29.79in 13mph 40% 0in 0.00 watts/m^2
00:35 79.5°F - 53.7°F 29.78in 13mph 41% 0in 0.00 watts/m^2
00:40 79.9°F - 53.4°F 29.78in 13mph 40% 0in 0.00 watts/m^2
00:45 80°F 80.0°F 54.2°F 29.78in 16mph 41% 0in 0.00 watts/m^2
00:50 79.5°F - 55.7°F 29.78in 12mph 44% 0in 0.00 watts/m^2
00:55 79.1°F - 52.7°F 29.78in 12mph 40% 0in 0.00 watts/m^2
01:00 79.1°F - 49.8°F 29.78in 11mph 36% 0in 0.00 watts/m^2
01:05 78.8°F - 50.3°F 29.78in 13mph 37% 0in 0.00 watts/m^2
01:10 78.3°F - 49.1°F 29.78in 11mph 36% 0in 0.00 watts/m^2
01:15 78.9°F - 48.9°F 29.77in 11mph 35% 0in 0.00 watts/m^2
01:20 79.3°F - 47.7°F 29.77in 9mph 33% 0in 0.00 watts/m^2
01:25 79.4°F - 48.6°F 29.77in 9mph 34% 0in 0.00 watts/m^2
01:30 79.4°F - 50.1°F 29.77in 16mph 36% 0in 0.00 watts/m^2
01:35 79.5°F - 50.9°F 29.77in 16mph 37% 0in 0.00 watts/m^2
01:40 79.6°F - 53.8°F 29.77in 13mph 41% 0in 0.00 watts/m^2
01:45 79.7°F - 55.2°F 29.77in 13mph 43% 0in 0.00 watts/m^2
01:50 80°F 80.3°F 56.7°F 29.77in 13mph 45% 0in 0.00 watts/m^2
01:55 80.2°F 80.4°F 56.3°F 29.77in 13mph 44% 0in 0.00 watts/m^2
02:00 80.4°F 80.6°F 56.5°F 29.77in 12mph 44% 0in 0.00 watts/m^2
02:05 80.2°F 80.7°F 58.1°F 29.77in 12mph 47% 0in 0.00 watts/m^2
02:10 80.4°F 80.8°F 57.7°F 29.77in 11mph 46% 0in 0.00 watts/m^2
02:15 80.4°F 80.8°F 57.7°F 29.77in 11mph 46% 0in 0.00 watts/m^2
02:20 80.5°F 80.7°F 57.2°F 29.76in 11mph 45% 0in 0.00 watts/m^2
02:25 80.7°F 80.8°F 56.8°F 29.76in 16mph 44% 0in 0.00 watts/m^2
02:30 80.1°F 80.5°F 57.5°F 29.76in 16mph 46% 0in 0.00 watts/m^2
02:35 79.3°F - 56.7°F 29.76in 18mph 46% 0in 0.00 watts/m^2
02:40 79.2°F - 53.5°F 29.76in 14mph 41% 0in 0.00 watts/m^2
02:45 79.5°F - 51.7°F 29.76in 14mph 38% 0in 0.00 watts/m^2
02:50 79.6°F - 51.8°F 29.76in 11mph 38% 0in 0.00 watts/m^2
02:55 79.9°F - 51.3°F 29.76in 12mph 37% 0in 0.00 watts/m^2
03:00 80°F - 52.1°F 29.76in 17mph 38% 0in 0.00 watts/m^2
03:05 80.2°F 80.1°F 53.7°F 29.76in 17mph 40% 0in 0.00 watts/m^2
03:10 80.1°F 80.2°F 54.9°F 29.75in 17mph 42% 0in 0.00 watts/m^2
03:15 80.3°F 80.2°F 54.5°F 29.75in 17mph 41% 0in 0.00 watts/m^2
03:20 80.4°F 80.6°F 56.5°F 29.75in 16mph 44% 0in 0.00 watts/m^2
03:25 80.4°F 80.6°F 56.5°F 29.75in 16mph 44% 0in 0.00 watts/m^2
03:30 80.4°F 80.6°F 56.5°F 29.75in 18mph 44% 0in 0.00 watts/m^2
03:35 80.4°F 80.5°F 55.9°F 29.75in 18mph 43% 0in 0.00 watts/m^2
03:40 80.3°F 80.3°F 55.1°F 29.75in 21mph 42% 0in 0.00 watts/m^2
03:45 79.9°F - 55.4°F 29.75in 21mph 43% 0in 0.00 watts/m^2
03:50 79.8°F - 54.7°F 29.75in 14mph 42% 0in 0.00 watts/m^2
03:55 80°F - 52.8°F 29.75in 14mph 39% 0in 0.00 watts/m^2
04:00 79.7°F - 53.2°F 29.75in 12mph 40% 0in 0.00 watts/m^2
04:05 79.7°F - 52.5°F 29.75in 17mph 39% 0in 0.00 watts/m^2
04:10 79.7°F - 51.8°F 29.75in 15mph 38% 0in 0.00 watts/m^2
04:15 79.4°F - 52.3°F 29.75in 15mph 39% 0in 0.00 watts/m^2
04:20 79.3°F - 52.2°F 29.75in 14mph 39% 0in 0.00 watts/m^2
04:25 79.2°F - 52.8°F 29.75in 15mph 40% 0in 0.00 watts/m^2
04:30 79.3°F - 52.2°F 29.75in 15mph 39% 0in 0.00 watts/m^2
04:35 79.4°F - 52.3°F 29.75in 15mph 39% 0in 0.00 watts/m^2
04:40 79.3°F - 53.6°F 29.75in 15mph 41% 0in 0.00 watts/m^2
04:45 79.2°F - 53.5°F 29.75in 15mph 41% 0in 0.00 watts/m^2
04:50 79.2°F - 54.1°F 29.75in 13mph 42% 0in 0.00 watts/m^2
04:55 79.4°F - 53.6°F 29.75in 13mph 41% 0in 0.00 watts/m^2
05:00 79.5°F - 53.7°F 29.75in 15mph 41% 0in 0.00 watts/m^2
05:05 79.5°F - 53.7°F 29.75in 15mph 41% 0in 0.00 watts/m^2
05:10 79.6°F - 53.1°F 29.75in 12mph 40% 0in 0.00 watts/m^2
05:15 79.6°F - 52.5°F 29.75in 13mph 39% 0in 0.00 watts/m^2
05:20 79.6°F - 53.8°F 29.75in 16mph 41% 0in 0.00 watts/m^2
05:25 79.2°F - 54.1°F 29.76in 16mph 42% 0in 0.00 watts/m^2
05:30 79.4°F - 53°F 29.75in 13mph 40% 0in 0.00 watts/m^2
05:35 79.6°F - 52.5°F 29.76in 14mph 39% 0in 0.00 watts/m^2
05:40 79.7°F - 52.5°F 29.76in 14mph 39% 0in 0.00 watts/m^2
05:45 79.7°F - 53.2°F 29.76in 14mph 40% 0in 0.00 watts/m^2
05:50 79.7°F - 53.2°F 29.76in 12mph 40% 0in 0.00 watts/m^2
05:55 79.8°F - 53.3°F 29.75in 13mph 40% 0in 0.00 watts/m^2
06:00 79.8°F - 53.3°F 29.76in 13mph 40% 0in 0.00 watts/m^2
06:05 80°F - 52.8°F 29.76in 14mph 39% 0in 0.00 watts/m^2
06:10 80°F 79.9°F 53.5°F 29.76in 14mph 40% 0in 0.00 watts/m^2
06:15 80.1°F 80.0°F 53.6°F 29.76in 14mph 40% 0in 0.00 watts/m^2
06:20 80.3°F 80.1°F 53.8°F 29.76in 15mph 40% 0in 0.00 watts/m^2
06:25 80.2°F 80.2°F 54.4°F 29.76in 15mph 41% 0in 0.00 watts/m^2
06:30 80.2°F 80.1°F 53.7°F 29.76in 15mph 40% 0in 0.00 watts/m^2
06:35 80.2°F - 53°F 29.77in 20mph 39% 0in 0.00 watts/m^2
06:40 79.6°F - 52.5°F 29.77in 19mph 39% 0in 0.00 watts/m^2
06:45 79°F - 51.9°F 29.76in 19mph 39% 0in 0.00 watts/m^2
06:50 79°F - 50.5°F 29.77in 17mph 37% 0in 0.00 watts/m^2
06:55 79.2°F - 49.9°F 29.77in 17mph 36% 0in 0.00 watts/m^2
07:00 79.3°F - 50°F 29.77in 17mph 36% 0in 0.00 watts/m^2
07:05 79.4°F - 50.1°F 29.77in 21mph 36% 0in 0.00 watts/m^2
07:10 79.8°F - 51.2°F 29.77in 21mph 37% 0in 5.00 watts/m^2
07:15 80°F - 52.8°F 29.77in 21mph 39% 0in 11.00 watts/m^2
07:20 80.3°F 80.1°F 53.8°F 29.77in 20mph 40% 0in 21.00 watts/m^2
07:25 80.4°F 80.2°F 53.9°F 29.78in 22mph 40% 0in 21.00 watts/m^2
07:30 80.5°F 80.5°F 55.3°F 29.78in 25mph 42% 0in 46.00 watts/m^2
07:35 80.5°F 80.5°F 55.3°F 29.78in 25mph 42% 0in 37.00 watts/m^2
07:40 80.7°F 80.7°F 56.1°F 29.78in 26mph 43% 0in 54.00 watts/m^2
07:45 80.6°F 80.9°F 57.9°F 29.78in 26mph 46% 0in 90.00 watts/m^2
07:50 80.4°F 80.8°F 57.7°F 29.79in 22mph 46% 0in 100.00 watts/m^2
07:55 80.5°F 80.7°F 57.2°F 29.79in 22mph 45% 0in 67.00 watts/m^2
08:00 80.6°F 80.7°F 56.7°F 29.79in 18mph 44% 0in 142.00 watts/m^2
08:05 80.9°F 81.0°F 56.9°F 29.79in 18mph 44% 0in 148.00 watts/m^2
08:10 81°F 81.2°F 57.7°F 29.79in 19mph 45% 0in 70.00 watts/m^2
08:15 81.2°F 81.2°F 57.2°F 29.79in 19mph 44% 0in 47.00 watts/m^2
08:20 81°F 81.2°F 57.7°F 29.80in 18mph 45% 0in 156.00 watts/m^2
08:25 81.1°F 81.1°F 57.1°F 29.80in 19mph 44% 0in 60.00 watts/m^2
08:30 81.2°F 81.0°F 55.9°F 29.80in 27mph 42% 0in 81.00 watts/m^2
08:35 81.2°F 81.1°F 56.6°F 29.80in 27mph 43% 0in 47.00 watts/m^2
08:40 81.2°F 81.0°F 55.9°F 29.80in 21mph 42% 0in 167.00 watts/m^2
08:45 81.4°F 81.2°F 56.1°F 29.80in 21mph 42% 0in 137.00 watts/m^2
08:50 81.7°F 81.4°F 56.4°F 29.80in 18mph 42% 0in 160.00 watts/m^2
08:55 81.6°F 81.8°F 58.8°F 29.80in 18mph 46% 0in 171.00 watts/m^2
09:00 81.6°F 81.9°F 59.4°F 29.81in 26mph 47% 0in 84.00 watts/m^2
09:05 81.2°F 81.6°F 59.1°F 29.81in 26mph 47% 0in 125.00 watts/m^2
09:10 81.1°F 81.1°F 57.1°F 29.81in 20mph 44% 0in 149.00 watts/m^2
09:15 81.3°F 81.2°F 56.7°F 29.81in 20mph 43% 0in 207.00 watts/m^2
09:20 81.5°F 81.5°F 57.5°F 29.81in 22mph 44% 0in 160.00 watts/m^2
09:25 81.4°F 82.1°F 61°F 29.81in 22mph 50% 0in 214.00 watts/m^2
09:30 81.2°F 81.9°F 60.8°F 29.81in 20mph 50% 0in 304.00 watts/m^2
09:35 81.5°F 82.0°F 59.9°F 29.82in 20mph 48% 0in 489.00 watts/m^2
09:40 82.2°F 83.0°F 61.7°F 29.82in 19mph 50% 0in 343.00 watts/m^2
09:45 82.3°F 83.3°F 62.4°F 29.82in 23mph 51% 0in 130.00 watts/m^2
09:50 82.2°F 83.1°F 62.3°F 29.82in 19mph 51% 0in 183.00 watts/m^2
09:55 81.9°F 83.0°F 62.5°F 29.83in 21mph 52% 0in 114.00 watts/m^2
10:00 81.4°F 82.1°F 61°F 29.83in 19mph 50% 0in 287.00 watts/m^2
10:05 80.9°F 81.4°F 59.4°F 29.83in 19mph 48% 0in 111.00 watts/m^2
10:10 80.9°F 81.2°F 58.2°F 29.84in 18mph 46% 0in 241.00 watts/m^2
10:15 81°F 81.2°F 57.7°F 29.83in 22mph 45% 0in 193.00 watts/m^2
10:20 81.9°F 82.0°F 58.5°F 29.84in 22mph 45% 0in 619.00 watts/m^2
10:25 82°F 82.8°F 61.5°F 29.84in 23mph 50% 0in 334.00 watts/m^2
10:30 82.1°F 82.9°F 61.6°F 29.84in 23mph 50% 0in 221.00 watts/m^2
10:35 81.6°F 82.6°F 62.3°F 29.85in 23mph 52% 0in 190.00 watts/m^2
10:40 81.2°F 82.2°F 61.9°F 29.85in 19mph 52% 0in 316.00 watts/m^2
10:45 81.8°F 82.3°F 60.2°F 29.85in 19mph 48% 0in 332.00 watts/m^2
10:50 82.4°F 82.9°F 60.7°F 29.85in 17mph 48% 0in 394.00 watts/m^2
10:55 83°F 84.1°F 63°F 29.85in 19mph 51% 0in 694.00 watts/m^2
11:00 83.5°F 84.7°F 63.5°F 29.85in 20mph 51% 0in 691.00 watts/m^2
11:05 84°F 85.8°F 65°F 29.85in 20mph 53% 0in 765.00 watts/m^2
11:10 84.2°F 86.6°F 66.3°F 29.85in 18mph 55% 0in 636.00 watts/m^2
11:15 83.3°F 85.9°F 67°F 29.86in 18mph 58% 0in 327.00 watts/m^2
11:20 83.6°F 85.7°F 65.7°F 29.85in 15mph 55% 0in 905.00 watts/m^2
11:25 83.9°F 85.9°F 65.5°F 29.86in 15mph 54% 0in 199.00 watts/m^2
11:30 83.5°F 85.5°F 65.6°F 29.85in 19mph 55% 0in 181.00 watts/m^2
11:35 83.1°F 84.6°F 64.2°F 29.86in 20mph 53% 0in 149.00 watts/m^2
11:40 82.8°F 84.4°F 64.5°F 29.86in 24mph 54% 0in 167.00 watts/m^2
11:45 82.6°F 83.6°F 62.6°F 29.86in 24mph 51% 0in 211.00 watts/m^2
11:50 83.1°F 84.0°F 62.5°F 29.86in 22mph 50% 0in 870.00 watts/m^2
11:55 83.5°F 85.1°F 64.6°F 29.86in 22mph 53% 0in 478.00 watts/m^2
12:00 83.9°F 86.1°F 66°F 29.86in 18mph 55% 0in 457.00 watts/m^2
12:05 84.3°F 87.2°F 67.4°F 29.86in 20mph 57% 0in 316.00 watts/m^2
12:10 84.2°F 87.6°F 68.3°F 29.86in 20mph 59% 0in 497.00 watts/m^2
12:15 84.3°F 87.8°F 68.4°F 29.86in 22mph 59% 0in 816.00 watts/m^2
12:20 84.8°F 88.0°F 67.9°F 29.86in 22mph 57% 0in 926.00 watts/m^2
12:25 84.8°F 88.3°F 68.4°F 29.86in 22mph 58% 0in 517.00 watts/m^2
12:30 85°F 88.6°F 68.6°F 29.86in 22mph 58% 0in 939.00 watts/m^2
12:35 85.2°F 89.6°F 69.7°F 29.86in 22mph 60% 0in 926.00 watts/m^2
12:40 85.2°F 89.9°F 70.2°F 29.86in 22mph 61% 0in 932.00 watts/m^2
12:45 84.8°F 88.9°F 69.4°F 29.86in 22mph 60% 0in 251.00 watts/m^2
12:50 84.3°F 88.0°F 68.9°F 29.86in 21mph 60% 0in 292.00 watts/m^2
12:55 84.6°F 88.5°F 69.2°F 29.86in 21mph 60% 0in 977.00 watts/m^2
13:00 84.6°F 88.3°F 68.7°F 29.86in 20mph 59% 0in 722.00 watts/m^2
13:05 85°F 89.6°F 70°F 29.86in 24mph 61% 0in 874.00 watts/m^2
13:10 85.2°F 89.9°F 70.2°F 29.86in 19mph 61% 0in 921.00 watts/m^2
13:15 85.2°F 90.3°F 70.7°F 29.86in 19mph 62% 0in 990.00 watts/m^2
13:20 85.1°F 90.4°F 71.1°F 29.86in 20mph 63% 0in 990.00 watts/m^2
13:25 85.3°F 90.1°F 70.3°F 29.86in 23mph 61% 0in 868.00 watts/m^2
13:30 85.5°F 90.5°F 70.5°F 29.86in 18mph 61% 0in 1039.00 watts/m^2
13:35 85.4°F 90.7°F 70.9°F 29.86in 18mph 62% 0in 824.00 watts/m^2
13:40 85.4°F 90.7°F 70.9°F 29.86in 18mph 62% 0in 888.00 watts/m^2
13:45 85°F 89.9°F 70.5°F 29.86in 18mph 62% 0in 902.00 watts/m^2
13:50 84.9°F 89.7°F 70.4°F 29.86in 17mph 62% 0in 826.00 watts/m^2
13:55 85.1°F 89.8°F 70.1°F 29.86in 22mph 61% 0in 891.00 watts/m^2
14:00 85°F 89.6°F 70°F 29.86in 17mph 61% 0in 207.00 watts/m^2
14:05 84.3°F 88.3°F 69.4°F 29.86in 20mph 61% 0in 318.00 watts/m^2
14:10 83.8°F 87.2°F 68.4°F 29.85in 17mph 60% 0in 267.00 watts/m^2
14:15 83.8°F 86.9°F 67.9°F 29.86in 17mph 59% 0in 374.00 watts/m^2
14:20 83.6°F 86.6°F 67.8°F 29.86in 17mph 59% 0in 148.00 watts/m^2
14:25 83.8°F 87.2°F 68.4°F 29.86in 23mph 60% 0in 828.00 watts/m^2
14:30 84°F 87.5°F 68.6°F 29.85in 14mph 60% 0in 272.00 watts/m^2
14:35 84°F 87.5°F 68.6°F 29.85in 16mph 60% 0in 301.00 watts/m^2
14:40 84.1°F 87.4°F 68.2°F 29.85in 17mph 59% 0in 974.00 watts/m^2
14:45 84°F 87.8°F 69.1°F 29.85in 22mph 61% 0in 919.00 watts/m^2
14:50 83.9°F 87.9°F 69.5°F 29.85in 17mph 62% 0in 754.00 watts/m^2
14:55 84.3°F 88.6°F 69.9°F 29.85in 17mph 62% 0in 735.00 watts/m^2
15:00 84.3°F 88.3°F 69.4°F 29.85in 16mph 61% 0in 735.00 watts/m^2
15:05 83.8°F 87.5°F 68.9°F 29.85in 16mph 61% 0in 267.00 watts/m^2
15:10 83.6°F 87.4°F 69.2°F 29.85in 14mph 62% 0in 279.00 watts/m^2
15:15 84.1°F 88.2°F 69.7°F 29.85in 14mph 62% 0in 287.00 watts/m^2
15:20 84°F 88.4°F 70°F 29.85in 12mph 63% 0in 448.00 watts/m^2
15:25 84.3°F 89.2°F 70.8°F 29.85in 13mph 64% 0in 719.00 watts/m^2
15:30 84.5°F 89.6°F 71°F 29.85in 17mph 64% 0in 840.00 watts/m^2
15:35 84.1°F 88.5°F 70.1°F 29.85in 17mph 63% 0in 455.00 watts/m^2
15:40 83.8°F 87.7°F 69.4°F 29.85in 15mph 62% 0in 290.00 watts/m^2
15:45 83.2°F 86.5°F 68.3°F 29.85in 15mph 61% 0in 183.00 watts/m^2
15:50 83.2°F 86.2°F 67.9°F 29.85in 18mph 60% 0in 571.00 watts/m^2
15:55 83.5°F 86.5°F 67.7°F 29.85in 18mph 59% 0in 264.00 watts/m^2
16:00 83.3°F 86.9°F 68.9°F 29.85in 19mph 62% 0in 315.00 watts/m^2
16:05 83.3°F 86.6°F 68.4°F 29.86in 19mph 61% 0in 281.00 watts/m^2
Comma Delimited File
Powered by Weather Underground, Inc.